Etusivu
METAR-TAF:

METAR-TAF

Lentoasemat :

Camp Mabry

Austin, Texas, Yhdysvallat

Leveyspiiri: 30-19N, Pituuspiiri: 097-46W, korkeus merenpinnasta: 200 m

Tämänhetkinen sää

Tämä raportti tehtiin 43 minuuttia sitten, kello 09.51 UTC
tyyntä
Lämpötila 9°C
Kosteus 81%
Ilmanpaine 1019 hPa
Näkyvyys: 16.1 km
selkeää

METAR: KATT 200951Z AUTO 00000KT 10SM CLR 09/06 A3010 RMK AO2 SLP187 T00940061

Aika: 05:34 (10:34 UTC)


TAF: puuttuu

Säähavainnot ja -ennusteet yli 4000 lentoasemalta (METAR- ja TAF-raportit).

Käytössä olevat sääasemat on merkitty karttaan keltaisilla ja punaisilla pisteillä.

Aseta hiiri pisteen päälle nähdäksesi sääaseman nimen.

Klikkaa sitten nähdäksesi säähavainnot ja -ennusteet.

Kartan vaihtaminen: klikkaa mustalla rastilla varustettuja vihreitä pisteitä, niin voit zoomata sisään; viivalla varustettua vihreää pistettä, niin voit zoomata ulos tai vihreitä nuolia, niin pääset viereisille kartoille.


METAR-TAF: